sensor_id;sensor_type;location;lat;lon;timestamp;P1;durP1;ratioP1;P2;durP2;ratioP2
72261;SDS011;60173;52.112;8.648;2024-02-21T00:02:11;50.72;;;23.50;;
72261;SDS011;60173;52.112;8.648;2024-02-21T00:04:38;48.53;;;22.55;;
72261;SDS011;60173;52.112;8.648;2024-02-21T00:07:04;60.53;;;24.60;;
72261;SDS011;60173;52.112;8.648;2024-02-21T00:09:31;47.90;;;23.30;;
72261;SDS011;60173;52.112;8.648;2024-02-21T00:11:57;49.88;;;22.90;;
72261;SDS011;60173;52.112;8.648;2024-02-21T00:14:24;52.33;;;24.05;;
72261;SDS011;60173;52.112;8.648;2024-02-21T00:16:50;54.30;;;22.85;;
72261;SDS011;60173;52.112;8.648;2024-02-21T00:19:17;46.13;;;22.80;;
72261;SDS011;60173;52.112;8.648;2024-02-21T00:21:43;46.22;;;23.98;;
72261;SDS011;60173;52.112;8.648;2024-02-21T00:24:10;50.50;;;23.20;;
72261;SDS011;60173;52.112;8.648;2024-02-21T00:26:36;46.72;;;23.00;;
72261;SDS011;60173;52.112;8.648;2024-02-21T00:29:03;48.10;;;23.23;;
72261;SDS011;60173;52.112;8.648;2024-02-21T00:31:33;52.00;;;23.48;;
72261;SDS011;60173;52.112;8.648;2024-02-21T00:34:00;52.03;;;23.52;;
72261;SDS011;60173;52.112;8.648;2024-02-21T00:36:26;40.63;;;22.02;;
72261;SDS011;60173;52.112;8.648;2024-02-21T00:38:53;43.80;;;21.08;;
72261;SDS011;60173;52.112;8.648;2024-02-21T00:41:19;44.78;;;21.60;;
72261;SDS011;60173;52.112;8.648;2024-02-21T00:43:46;41.58;;;21.52;;
72261;SDS011;60173;52.112;8.648;2024-02-21T00:46:12;53.60;;;23.80;;
72261;SDS011;60173;52.112;8.648;2024-02-21T00:48:39;51.67;;;22.20;;
72261;SDS011;60173;52.112;8.648;2024-02-21T00:51:05;49.30;;;24.05;;
72261;SDS011;60173;52.112;8.648;2024-02-21T00:53:32;45.58;;;22.30;;
72261;SDS011;60173;52.112;8.648;2024-02-21T00:55:58;51.30;;;22.73;;
72261;SDS011;60173;52.112;8.648;2024-02-21T00:58:24;39.75;;;21.98;;
72261;SDS011;60173;52.112;8.648;2024-02-21T01:00:51;45.95;;;22.77;;
72261;SDS011;60173;52.112;8.648;2024-02-21T01:03:17;47.88;;;20.88;;
72261;SDS011;60173;52.112;8.648;2024-02-21T01:05:44;48.08;;;21.67;;
72261;SDS011;60173;52.112;8.648;2024-02-21T01:08:11;42.65;;;21.65;;
72261;SDS011;60173;52.112;8.648;2024-02-21T01:10:37;46.70;;;21.77;;
72261;SDS011;60173;52.112;8.648;2024-02-21T01:13:03;45.55;;;22.45;;
72261;SDS011;60173;52.112;8.648;2024-02-21T01:15:30;46.15;;;21.98;;
72261;SDS011;60173;52.112;8.648;2024-02-21T01:17:56;44.28;;;22.88;;
72261;SDS011;60173;52.112;8.648;2024-02-21T01:20:23;48.67;;;24.17;;
72261;SDS011;60173;52.112;8.648;2024-02-21T01:22:49;43.58;;;23.23;;
72261;SDS011;60173;52.112;8.648;2024-02-21T01:25:16;49.33;;;21.80;;
72261;SDS011;60173;52.112;8.648;2024-02-21T01:27:42;49.83;;;22.25;;
72261;SDS011;60173;52.112;8.648;2024-02-21T01:30:09;39.75;;;21.45;;
72261;SDS011;60173;52.112;8.648;2024-02-21T01:32:36;43.42;;;21.83;;
72261;SDS011;60173;52.112;8.648;2024-02-21T01:35:02;40.92;;;20.92;;
72261;SDS011;60173;52.112;8.648;2024-02-21T01:37:29;45.45;;;20.92;;
72261;SDS011;60173;52.112;8.648;2024-02-21T01:39:56;45.22;;;20.98;;
72261;SDS011;60173;52.112;8.648;2024-02-21T01:42:22;42.08;;;21.75;;
72261;SDS011;60173;52.112;8.648;2024-02-21T01:44:48;46.97;;;20.00;;
72261;SDS011;60173;52.112;8.648;2024-02-21T01:47:15;46.45;;;21.45;;
72261;SDS011;60173;52.112;8.648;2024-02-21T01:49:41;44.28;;;21.65;;
72261;SDS011;60173;52.112;8.648;2024-02-21T01:52:08;51.17;;;21.48;;
72261;SDS011;60173;52.112;8.648;2024-02-21T01:54:39;43.85;;;20.70;;
72261;SDS011;60173;52.112;8.648;2024-02-21T01:57:05;37.50;;;20.02;;
72261;SDS011;60173;52.112;8.648;2024-02-21T01:59:32;44.50;;;22.35;;
72261;SDS011;60173;52.112;8.648;2024-02-21T02:01:58;42.97;;;21.65;;
72261;SDS011;60173;52.112;8.648;2024-02-21T02:04:26;48.72;;;21.40;;
72261;SDS011;60173;52.112;8.648;2024-02-21T02:06:54;47.97;;;22.35;;
72261;SDS011;60173;52.112;8.648;2024-02-21T02:09:21;47.65;;;22.52;;
72261;SDS011;60173;52.112;8.648;2024-02-21T02:11:48;49.35;;;22.63;;
72261;SDS011;60173;52.112;8.648;2024-02-21T02:14:14;46.63;;;22.80;;
72261;SDS011;60173;52.112;8.648;2024-02-21T02:16:41;45.25;;;22.85;;
72261;SDS011;60173;52.112;8.648;2024-02-21T02:19:07;50.70;;;23.23;;
72261;SDS011;60173;52.112;8.648;2024-02-21T02:21:34;48.72;;;24.17;;
72261;SDS011;60173;52.112;8.648;2024-02-21T02:24:06;48.38;;;21.65;;
72261;SDS011;60173;52.112;8.648;2024-02-21T02:26:33;48.17;;;22.67;;
72261;SDS011;60173;52.112;8.648;2024-02-21T02:29:01;44.92;;;22.48;;
72261;SDS011;60173;52.112;8.648;2024-02-21T02:31:28;46.75;;;22.00;;
72261;SDS011;60173;52.112;8.648;2024-02-21T02:33:54;45.42;;;22.30;;
72261;SDS011;60173;52.112;8.648;2024-02-21T02:36:21;57.03;;;24.27;;
72261;SDS011;60173;52.112;8.648;2024-02-21T02:38:47;47.70;;;23.95;;
72261;SDS011;60173;52.112;8.648;2024-02-21T02:41:14;50.90;;;24.00;;
72261;SDS011;60173;52.112;8.648;2024-02-21T02:43:40;41.55;;;22.58;;
72261;SDS011;60173;52.112;8.648;2024-02-21T02:46:06;54.92;;;23.60;;
72261;SDS011;60173;52.112;8.648;2024-02-21T02:48:33;52.35;;;23.92;;
72261;SDS011;60173;52.112;8.648;2024-02-21T02:50:59;54.42;;;24.17;;
72261;SDS011;60173;52.112;8.648;2024-02-21T02:53:26;40.55;;;22.42;;
72261;SDS011;60173;52.112;8.648;2024-02-21T02:55:52;47.03;;;23.77;;
72261;SDS011;60173;52.112;8.648;2024-02-21T02:58:19;50.75;;;24.30;;
72261;SDS011;60173;52.112;8.648;2024-02-21T03:00:45;49.80;;;24.80;;
72261;SDS011;60173;52.112;8.648;2024-02-21T03:03:12;51.92;;;24.23;;
72261;SDS011;60173;52.112;8.648;2024-02-21T03:05:38;52.97;;;23.38;;
72261;SDS011;60173;52.112;8.648;2024-02-21T03:08:05;50.60;;;24.13;;
72261;SDS011;60173;52.112;8.648;2024-02-21T03:10:32;54.78;;;23.23;;
72261;SDS011;60173;52.112;8.648;2024-02-21T03:12:59;53.42;;;22.77;;
72261;SDS011;60173;52.112;8.648;2024-02-21T03:15:25;50.10;;;23.45;;
72261;SDS011;60173;52.112;8.648;2024-02-21T03:17:52;50.20;;;22.38;;
72261;SDS011;60173;52.112;8.648;2024-02-21T03:20:18;46.25;;;21.67;;
72261;SDS011;60173;52.112;8.648;2024-02-21T03:22:45;44.75;;;21.92;;
72261;SDS011;60173;52.112;8.648;2024-02-21T03:25:11;49.97;;;22.75;;
72261;SDS011;60173;52.112;8.648;2024-02-21T03:27:38;40.28;;;21.02;;
72261;SDS011;60173;52.112;8.648;2024-02-21T03:30:05;46.38;;;22.17;;
72261;SDS011;60173;52.112;8.648;2024-02-21T03:32:31;42.03;;;21.73;;
72261;SDS011;60173;52.112;8.648;2024-02-21T03:34:58;43.13;;;21.60;;
72261;SDS011;60173;52.112;8.648;2024-02-21T03:37:25;42.47;;;21.48;;
72261;SDS011;60173;52.112;8.648;2024-02-21T03:39:51;42.72;;;21.15;;
72261;SDS011;60173;52.112;8.648;2024-02-21T03:42:18;39.75;;;20.30;;
72261;SDS011;60173;52.112;8.648;2024-02-21T03:44:44;38.80;;;19.77;;
72261;SDS011;60173;52.112;8.648;2024-02-21T03:47:10;46.05;;;20.42;;
72261;SDS011;60173;52.112;8.648;2024-02-21T03:49:37;41.00;;;20.65;;
72261;SDS011;60173;52.112;8.648;2024-02-21T03:52:04;38.22;;;19.65;;
72261;SDS011;60173;52.112;8.648;2024-02-21T03:54:30;40.75;;;20.35;;
72261;SDS011;60173;52.112;8.648;2024-02-21T03:56:57;35.72;;;18.73;;
72261;SDS011;60173;52.112;8.648;2024-02-21T03:59:23;36.15;;;18.27;;
72261;SDS011;60173;52.112;8.648;2024-02-21T04:01:53;44.90;;;19.27;;
72261;SDS011;60173;52.112;8.648;2024-02-21T04:04:20;44.35;;;20.02;;
72261;SDS011;60173;52.112;8.648;2024-02-21T04:06:47;45.90;;;19.55;;
72261;SDS011;60173;52.112;8.648;2024-02-21T04:09:14;36.35;;;18.45;;
72261;SDS011;60173;52.112;8.648;2024-02-21T04:11:41;41.22;;;18.50;;
72261;SDS011;60173;52.112;8.648;2024-02-21T04:14:07;44.05;;;18.77;;
72261;SDS011;60173;52.112;8.648;2024-02-21T04:16:34;38.45;;;18.70;;
72261;SDS011;60173;52.112;8.648;2024-02-21T04:19:01;47.47;;;19.15;;
72261;SDS011;60173;52.112;8.648;2024-02-21T04:21:28;44.15;;;20.63;;
72261;SDS011;60173;52.112;8.648;2024-02-21T04:23:54;40.80;;;19.10;;
72261;SDS011;60173;52.112;8.648;2024-02-21T04:26:20;37.83;;;18.98;;
72261;SDS011;60173;52.112;8.648;2024-02-21T04:28:47;39.67;;;18.92;;
72261;SDS011;60173;52.112;8.648;2024-02-21T04:31:13;47.95;;;19.80;;
72261;SDS011;60173;52.112;8.648;2024-02-21T04:33:41;41.20;;;20.58;;
72261;SDS011;60173;52.112;8.648;2024-02-21T04:36:07;40.50;;;19.58;;
72261;SDS011;60173;52.112;8.648;2024-02-21T04:38:34;43.58;;;20.77;;
72261;SDS011;60173;52.112;8.648;2024-02-21T04:41:00;45.70;;;20.38;;
72261;SDS011;60173;52.112;8.648;2024-02-21T04:43:27;39.20;;;19.23;;
72261;SDS011;60173;52.112;8.648;2024-02-21T04:45:53;44.92;;;21.35;;
72261;SDS011;60173;52.112;8.648;2024-02-21T04:48:20;39.38;;;18.95;;
72261;SDS011;60173;52.112;8.648;2024-02-21T04:50:46;37.75;;;19.90;;
72261;SDS011;60173;52.112;8.648;2024-02-21T04:53:13;44.80;;;21.23;;
72261;SDS011;60173;52.112;8.648;2024-02-21T04:55:39;42.25;;;20.38;;
72261;SDS011;60173;52.112;8.648;2024-02-21T04:58:06;49.90;;;21.65;;
72261;SDS011;60173;52.112;8.648;2024-02-21T05:00:32;45.00;;;21.92;;
72261;SDS011;60173;52.112;8.648;2024-02-21T05:02:58;45.75;;;22.85;;
72261;SDS011;60173;52.112;8.648;2024-02-21T05:05:25;51.70;;;22.13;;
72261;SDS011;60173;52.112;8.648;2024-02-21T05:07:52;46.85;;;22.20;;
72261;SDS011;60173;52.112;8.648;2024-02-21T05:10:18;45.03;;;22.88;;
72261;SDS011;60173;52.112;8.648;2024-02-21T05:12:45;45.63;;;23.50;;
72261;SDS011;60173;52.112;8.648;2024-02-21T05:15:11;48.90;;;22.83;;
72261;SDS011;60173;52.112;8.648;2024-02-21T05:17:38;42.92;;;23.15;;
72261;SDS011;60173;52.112;8.648;2024-02-21T05:20:05;43.30;;;22.00;;
72261;SDS011;60173;52.112;8.648;2024-02-21T05:22:32;46.25;;;23.17;;
72261;SDS011;60173;52.112;8.648;2024-02-21T05:24:58;45.08;;;22.25;;
72261;SDS011;60173;52.112;8.648;2024-02-21T05:27:25;44.72;;;22.70;;
72261;SDS011;60173;52.112;8.648;2024-02-21T05:29:51;50.58;;;23.02;;
72261;SDS011;60173;52.112;8.648;2024-02-21T05:32:17;48.92;;;22.27;;
72261;SDS011;60173;52.112;8.648;2024-02-21T05:34:44;53.08;;;21.83;;
72261;SDS011;60173;52.112;8.648;2024-02-21T05:37:10;42.10;;;21.98;;
72261;SDS011;60173;52.112;8.648;2024-02-21T05:39:37;50.85;;;22.38;;
72261;SDS011;60173;52.112;8.648;2024-02-21T05:42:03;49.58;;;22.40;;
72261;SDS011;60173;52.112;8.648;2024-02-21T05:44:30;54.15;;;22.30;;
72261;SDS011;60173;52.112;8.648;2024-02-21T05:46:56;43.85;;;20.88;;
72261;SDS011;60173;52.112;8.648;2024-02-21T05:49:23;47.00;;;21.48;;
72261;SDS011;60173;52.112;8.648;2024-02-21T05:51:49;48.83;;;21.20;;
72261;SDS011;60173;52.112;8.648;2024-02-21T05:54:16;44.70;;;22.17;;
72261;SDS011;60173;52.112;8.648;2024-02-21T05:56:45;47.80;;;21.25;;
72261;SDS011;60173;52.112;8.648;2024-02-21T05:59:12;44.35;;;22.73;;
72261;SDS011;60173;52.112;8.648;2024-02-21T06:01:39;45.78;;;22.10;;
72261;SDS011;60173;52.112;8.648;2024-02-21T06:04:05;41.15;;;22.58;;
72261;SDS011;60173;52.112;8.648;2024-02-21T06:06:32;47.25;;;23.70;;
72261;SDS011;60173;52.112;8.648;2024-02-21T06:08:58;40.53;;;22.17;;
72261;SDS011;60173;52.112;8.648;2024-02-21T06:11:25;44.15;;;21.83;;
72261;SDS011;60173;52.112;8.648;2024-02-21T06:13:52;49.22;;;23.90;;
72261;SDS011;60173;52.112;8.648;2024-02-21T06:16:18;47.25;;;22.95;;
72261;SDS011;60173;52.112;8.648;2024-02-21T06:18:45;37.90;;;20.95;;
72261;SDS011;60173;52.112;8.648;2024-02-21T06:21:11;48.10;;;23.95;;
72261;SDS011;60173;52.112;8.648;2024-02-21T06:23:38;44.03;;;22.23;;
72261;SDS011;60173;52.112;8.648;2024-02-21T06:26:04;41.50;;;21.55;;
72261;SDS011;60173;52.112;8.648;2024-02-21T06:28:30;45.97;;;23.23;;
72261;SDS011;60173;52.112;8.648;2024-02-21T06:30:57;41.85;;;20.35;;
72261;SDS011;60173;52.112;8.648;2024-02-21T06:33:23;45.83;;;21.23;;
72261;SDS011;60173;52.112;8.648;2024-02-21T06:35:50;40.65;;;21.33;;
72261;SDS011;60173;52.112;8.648;2024-02-21T06:38:17;47.95;;;21.90;;
72261;SDS011;60173;52.112;8.648;2024-02-21T06:40:43;42.25;;;21.10;;
72261;SDS011;60173;52.112;8.648;2024-02-21T06:43:10;45.38;;;21.08;;
72261;SDS011;60173;52.112;8.648;2024-02-21T06:45:36;44.65;;;20.90;;
72261;SDS011;60173;52.112;8.648;2024-02-21T06:48:03;42.35;;;21.30;;
72261;SDS011;60173;52.112;8.648;2024-02-21T06:50:30;37.15;;;19.75;;
72261;SDS011;60173;52.112;8.648;2024-02-21T06:52:56;38.25;;;19.75;;
72261;SDS011;60173;52.112;8.648;2024-02-21T06:55:23;43.83;;;20.10;;
72261;SDS011;60173;52.112;8.648;2024-02-21T06:57:49;35.30;;;18.90;;
72261;SDS011;60173;52.112;8.648;2024-02-21T07:00:16;39.78;;;19.23;;
72261;SDS011;60173;52.112;8.648;2024-02-21T07:02:42;38.70;;;18.02;;
72261;SDS011;60173;52.112;8.648;2024-02-21T07:05:09;37.28;;;18.48;;
72261;SDS011;60173;52.112;8.648;2024-02-21T07:07:36;36.85;;;17.83;;
72261;SDS011;60173;52.112;8.648;2024-02-21T07:10:03;39.50;;;18.70;;
72261;SDS011;60173;52.112;8.648;2024-02-21T07:12:29;42.33;;;18.15;;
72261;SDS011;60173;52.112;8.648;2024-02-21T07:14:56;35.83;;;16.50;;
72261;SDS011;60173;52.112;8.648;2024-02-21T07:17:22;33.67;;;15.65;;
72261;SDS011;60173;52.112;8.648;2024-02-21T07:19:48;27.23;;;14.50;;
72261;SDS011;60173;52.112;8.648;2024-02-21T07:22:15;37.53;;;15.05;;
72261;SDS011;60173;52.112;8.648;2024-02-21T07:24:41;30.98;;;14.23;;
72261;SDS011;60173;52.112;8.648;2024-02-21T07:27:08;26.98;;;13.23;;
72261;SDS011;60173;52.112;8.648;2024-02-21T07:29:34;34.15;;;14.80;;
72261;SDS011;60173;52.112;8.648;2024-02-21T07:32:01;24.98;;;12.50;;
72261;SDS011;60173;52.112;8.648;2024-02-21T07:34:28;29.35;;;12.60;;
72261;SDS011;60173;52.112;8.648;2024-02-21T07:36:55;25.75;;;12.23;;
72261;SDS011;60173;52.112;8.648;2024-02-21T07:39:21;30.17;;;12.20;;
72261;SDS011;60173;52.112;8.648;2024-02-21T07:41:48;25.35;;;11.32;;
72261;SDS011;60173;52.112;8.648;2024-02-21T07:44:15;30.85;;;11.82;;
72261;SDS011;60173;52.112;8.648;2024-02-21T07:46:42;27.17;;;10.98;;
72261;SDS011;60173;52.112;8.648;2024-02-21T07:49:08;27.48;;;10.80;;
72261;SDS011;60173;52.112;8.648;2024-02-21T07:51:35;22.98;;;10.68;;
72261;SDS011;60173;52.112;8.648;2024-02-21T07:54:01;24.25;;;10.77;;
72261;SDS011;60173;52.112;8.648;2024-02-21T07:56:28;26.52;;;10.57;;
72261;SDS011;60173;52.112;8.648;2024-02-21T07:58:54;21.67;;;9.55;;
72261;SDS011;60173;52.112;8.648;2024-02-21T08:01:21;22.73;;;9.88;;
72261;SDS011;60173;52.112;8.648;2024-02-21T08:03:47;19.88;;;8.75;;
72261;SDS011;60173;52.112;8.648;2024-02-21T08:06:14;21.10;;;9.70;;
72261;SDS011;60173;52.112;8.648;2024-02-21T08:08:41;27.25;;;8.98;;
72261;SDS011;60173;52.112;8.648;2024-02-21T08:11:07;22.23;;;9.20;;
72261;SDS011;60173;52.112;8.648;2024-02-21T08:13:34;19.52;;;8.43;;
72261;SDS011;60173;52.112;8.648;2024-02-21T08:16:00;23.50;;;8.20;;
72261;SDS011;60173;52.112;8.648;2024-02-21T08:18:27;17.38;;;8.13;;
72261;SDS011;60173;52.112;8.648;2024-02-21T08:20:53;21.70;;;8.25;;
72261;SDS011;60173;52.112;8.648;2024-02-21T08:23:22;26.10;;;8.30;;
72261;SDS011;60173;52.112;8.648;2024-02-21T08:25:49;18.27;;;7.82;;
72261;SDS011;60173;52.112;8.648;2024-02-21T08:28:16;21.42;;;8.23;;
72261;SDS011;60173;52.112;8.648;2024-02-21T08:30:42;23.05;;;7.95;;
72261;SDS011;60173;52.112;8.648;2024-02-21T08:33:09;21.60;;;8.38;;
72261;SDS011;60173;52.112;8.648;2024-02-21T08:35:36;22.05;;;7.82;;
72261;SDS011;60173;52.112;8.648;2024-02-21T08:38:02;19.17;;;7.45;;
72261;SDS011;60173;52.112;8.648;2024-02-21T08:40:29;22.98;;;7.72;;
72261;SDS011;60173;52.112;8.648;2024-02-21T08:42:55;15.43;;;7.03;;
72261;SDS011;60173;52.112;8.648;2024-02-21T08:45:22;21.90;;;8.13;;
72261;SDS011;60173;52.112;8.648;2024-02-21T08:47:48;15.20;;;7.47;;
72261;SDS011;60173;52.112;8.648;2024-02-21T08:50:15;20.02;;;7.28;;
72261;SDS011;60173;52.112;8.648;2024-02-21T08:52:53;23.40;;;7.05;;
72261;SDS011;60173;52.112;8.648;2024-02-21T08:55:20;18.10;;;7.18;;
72261;SDS011;60173;52.112;8.648;2024-02-21T08:57:57;17.30;;;7.00;;
72261;SDS011;60173;52.112;8.648;2024-02-21T09:00:23;20.08;;;8.05;;
72261;SDS011;60173;52.112;8.648;2024-02-21T09:02:50;19.40;;;6.88;;
72261;SDS011;60173;52.112;8.648;2024-02-21T09:05:16;17.50;;;6.85;;
72261;SDS011;60173;52.112;8.648;2024-02-21T09:07:43;20.75;;;7.60;;
72261;SDS011;60173;52.112;8.648;2024-02-21T09:10:10;14.70;;;6.35;;
72261;SDS011;60173;52.112;8.648;2024-02-21T09:12:36;16.75;;;6.45;;
72261;SDS011;60173;52.112;8.648;2024-02-21T09:15:02;12.52;;;6.13;;
72261;SDS011;60173;52.112;8.648;2024-02-21T09:17:29;16.63;;;7.15;;
72261;SDS011;60173;52.112;8.648;2024-02-21T09:19:56;16.48;;;6.28;;
72261;SDS011;60173;52.112;8.648;2024-02-21T09:22:23;16.10;;;6.10;;
72261;SDS011;60173;52.112;8.648;2024-02-21T09:24:49;16.15;;;6.40;;
72261;SDS011;60173;52.112;8.648;2024-02-21T09:27:16;14.18;;;6.13;;
72261;SDS011;60173;52.112;8.648;2024-02-21T09:29:42;15.63;;;5.93;;
72261;SDS011;60173;52.112;8.648;2024-02-21T09:32:09;16.10;;;5.32;;
72261;SDS011;60173;52.112;8.648;2024-02-21T09:34:35;11.18;;;5.38;;
72261;SDS011;60173;52.112;8.648;2024-02-21T09:37:02;16.80;;;6.38;;
72261;SDS011;60173;52.112;8.648;2024-02-21T09:39:29;12.25;;;5.35;;
72261;SDS011;60173;52.112;8.648;2024-02-21T09:41:59;14.38;;;5.65;;
72261;SDS011;60173;52.112;8.648;2024-02-21T09:44:33;13.45;;;5.03;;
72261;SDS011;60173;52.112;8.648;2024-02-21T09:47:06;16.00;;;5.63;;
72261;SDS011;60173;52.112;8.648;2024-02-21T09:49:36;12.20;;;5.68;;
72261;SDS011;60173;52.112;8.648;2024-02-21T09:52:02;12.55;;;5.05;;
72261;SDS011;60173;52.112;8.648;2024-02-21T09:54:32;17.75;;;5.43;;
72261;SDS011;60173;52.112;8.648;2024-02-21T09:56:59;11.98;;;4.28;;
72261;SDS011;60173;52.112;8.648;2024-02-21T09:59:31;15.05;;;5.03;;
72261;SDS011;60173;52.112;8.648;2024-02-21T10:01:59;12.30;;;4.85;;
72261;SDS011;60173;52.112;8.648;2024-02-21T10:04:25;12.20;;;4.70;;
72261;SDS011;60173;52.112;8.648;2024-02-21T10:06:53;14.02;;;4.82;;
72261;SDS011;60173;52.112;8.648;2024-02-21T10:09:23;13.10;;;4.85;;
72261;SDS011;60173;52.112;8.648;2024-02-21T10:11:50;10.05;;;4.18;;
72261;SDS011;60173;52.112;8.648;2024-02-21T10:14:16;9.73;;;4.22;;
72261;SDS011;60173;52.112;8.648;2024-02-21T10:16:43;15.48;;;5.07;;
72261;SDS011;60173;52.112;8.648;2024-02-21T10:19:19;10.65;;;4.07;;
72261;SDS011;60173;52.112;8.648;2024-02-21T10:22:02;14.10;;;4.88;;
72261;SDS011;60173;52.112;8.648;2024-02-21T10:24:34;14.18;;;4.80;;
72261;SDS011;60173;52.112;8.648;2024-02-21T10:27:04;14.43;;;3.83;;
72261;SDS011;60173;52.112;8.648;2024-02-21T10:29:32;7.25;;;3.63;;
72261;SDS011;60173;52.112;8.648;2024-02-21T10:32:08;13.48;;;4.70;;
72261;SDS011;60173;52.112;8.648;2024-02-21T10:34:36;11.23;;;4.28;;
72261;SDS011;60173;52.112;8.648;2024-02-21T10:37:05;9.75;;;4.20;;
72261;SDS011;60173;52.112;8.648;2024-02-21T10:39:34;9.57;;;4.15;;
72261;SDS011;60173;52.112;8.648;2024-02-21T10:42:04;9.90;;;4.25;;
72261;SDS011;60173;52.112;8.648;2024-02-21T10:44:37;12.48;;;4.22;;
72261;SDS011;60173;52.112;8.648;2024-02-21T10:47:07;9.77;;;4.35;;
72261;SDS011;60173;52.112;8.648;2024-02-21T10:49:36;11.02;;;4.82;;
72261;SDS011;60173;52.112;8.648;2024-02-21T10:57:10;9.43;;;4.45;;
72261;SDS011;60173;52.112;8.648;2024-02-21T10:59:39;14.68;;;5.30;;
72261;SDS011;60173;52.112;8.648;2024-02-21T11:02:06;11.55;;;6.00;;
72261;SDS011;60173;52.112;8.648;2024-02-21T11:04:33;13.18;;;6.00;;
72261;SDS011;60173;52.112;8.648;2024-02-21T11:07:02;15.38;;;5.78;;
72261;SDS011;60173;52.112;8.648;2024-02-21T11:09:35;15.40;;;5.82;;
72261;SDS011;60173;52.112;8.648;2024-02-21T11:12:02;9.65;;;5.65;;
72261;SDS011;60173;52.112;8.648;2024-02-21T11:14:30;12.15;;;6.13;;
72261;SDS011;60173;52.112;8.648;2024-02-21T11:16:57;17.80;;;7.63;;
72261;SDS011;60173;52.112;8.648;2024-02-21T11:19:24;14.50;;;7.00;;
72261;SDS011;60173;52.112;8.648;2024-02-21T11:21:53;20.77;;;8.07;;
72261;SDS011;60173;52.112;8.648;2024-02-21T11:27:11;16.15;;;8.10;;
72261;SDS011;60173;52.112;8.648;2024-02-21T11:29:45;21.95;;;9.23;;
72261;SDS011;60173;52.112;8.648;2024-02-21T11:32:15;17.65;;;8.38;;
72261;SDS011;60173;52.112;8.648;2024-02-21T11:34:55;19.13;;;8.70;;
72261;SDS011;60173;52.112;8.648;2024-02-21T11:37:24;19.48;;;9.20;;
72261;SDS011;60173;52.112;8.648;2024-02-21T11:39:51;17.13;;;8.68;;
72261;SDS011;60173;52.112;8.648;2024-02-21T11:42:18;23.35;;;9.27;;
72261;SDS011;60173;52.112;8.648;2024-02-21T11:44:44;22.48;;;9.57;;
72261;SDS011;60173;52.112;8.648;2024-02-21T11:47:11;19.45;;;8.98;;
72261;SDS011;60173;52.112;8.648;2024-02-21T11:49:38;20.02;;;9.05;;
72261;SDS011;60173;52.112;8.648;2024-02-21T11:52:09;16.65;;;8.50;;
72261;SDS011;60173;52.112;8.648;2024-02-21T11:54:35;20.48;;;9.45;;
72261;SDS011;60173;52.112;8.648;2024-02-21T11:57:02;19.30;;;8.40;;
72261;SDS011;60173;52.112;8.648;2024-02-21T11:59:31;20.38;;;8.88;;
72261;SDS011;60173;52.112;8.648;2024-02-21T12:01:58;13.80;;;8.27;;
72261;SDS011;60173;52.112;8.648;2024-02-21T12:04:26;19.45;;;9.32;;
72261;SDS011;60173;52.112;8.648;2024-02-21T12:06:53;17.02;;;8.73;;
72261;SDS011;60173;52.112;8.648;2024-02-21T12:09:22;19.88;;;8.98;;
72261;SDS011;60173;52.112;8.648;2024-02-21T12:11:56;16.63;;;7.90;;
72261;SDS011;60173;52.112;8.648;2024-02-21T12:14:28;19.20;;;7.78;;
72261;SDS011;60173;52.112;8.648;2024-02-21T12:16:55;17.08;;;7.07;;
72261;SDS011;60173;52.112;8.648;2024-02-21T12:19:22;19.60;;;7.93;;
72261;SDS011;60173;52.112;8.648;2024-02-21T12:21:49;17.17;;;7.70;;
72261;SDS011;60173;52.112;8.648;2024-02-21T12:24:17;15.75;;;6.90;;
72261;SDS011;60173;52.112;8.648;2024-02-21T12:26:54;14.38;;;7.20;;
72261;SDS011;60173;52.112;8.648;2024-02-21T12:29:22;13.43;;;6.78;;
72261;SDS011;60173;52.112;8.648;2024-02-21T12:31:49;17.80;;;7.85;;
72261;SDS011;60173;52.112;8.648;2024-02-21T12:34:16;17.98;;;7.65;;
72261;SDS011;60173;52.112;8.648;2024-02-21T12:36:56;15.80;;;7.60;;
72261;SDS011;60173;52.112;8.648;2024-02-21T12:39:22;13.88;;;7.18;;
72261;SDS011;60173;52.112;8.648;2024-02-21T12:41:49;17.05;;;7.93;;
72261;SDS011;60173;52.112;8.648;2024-02-21T12:44:15;14.80;;;6.97;;
72261;SDS011;60173;52.112;8.648;2024-02-21T12:46:42;16.92;;;7.20;;
72261;SDS011;60173;52.112;8.648;2024-02-21T12:49:08;20.77;;;7.35;;
72261;SDS011;60173;52.112;8.648;2024-02-21T12:51:36;16.98;;;7.55;;
72261;SDS011;60173;52.112;8.648;2024-02-21T12:54:02;19.33;;;6.95;;
72261;SDS011;60173;52.112;8.648;2024-02-21T12:56:29;14.27;;;7.03;;
72261;SDS011;60173;52.112;8.648;2024-02-21T12:58:55;16.63;;;6.40;;
72261;SDS011;60173;52.112;8.648;2024-02-21T13:01:22;14.48;;;5.80;;
72261;SDS011;60173;52.112;8.648;2024-02-21T13:03:48;16.13;;;5.93;;
72261;SDS011;60173;52.112;8.648;2024-02-21T13:06:15;15.85;;;6.28;;
72261;SDS011;60173;52.112;8.648;2024-02-21T13:08:41;16.15;;;6.30;;
72261;SDS011;60173;52.112;8.648;2024-02-21T13:11:08;14.27;;;6.07;;
72261;SDS011;60173;52.112;8.648;2024-02-21T13:13:34;16.73;;;7.53;;
72261;SDS011;60173;52.112;8.648;2024-02-21T13:16:01;18.23;;;7.93;;
72261;SDS011;60173;52.112;8.648;2024-02-21T13:18:27;46.75;;;21.83;;
72261;SDS011;60173;52.112;8.648;2024-02-21T13:20:54;39.38;;;15.52;;
72261;SDS011;60173;52.112;8.648;2024-02-21T13:23:21;32.15;;;14.75;;
72261;SDS011;60173;52.112;8.648;2024-02-21T13:25:47;38.50;;;16.45;;
72261;SDS011;60173;52.112;8.648;2024-02-21T13:28:14;31.70;;;11.73;;
72261;SDS011;60173;52.112;8.648;2024-02-21T13:30:40;23.77;;;9.60;;
72261;SDS011;60173;52.112;8.648;2024-02-21T13:33:07;26.63;;;11.00;;
72261;SDS011;60173;52.112;8.648;2024-02-21T13:35:33;22.80;;;8.43;;
72261;SDS011;60173;52.112;8.648;2024-02-21T13:38:00;19.25;;;8.27;;
72261;SDS011;60173;52.112;8.648;2024-02-21T13:40:26;18.25;;;7.15;;
72261;SDS011;60173;52.112;8.648;2024-02-21T13:42:53;17.52;;;7.80;;
72261;SDS011;60173;52.112;8.648;2024-02-21T13:45:19;16.05;;;6.00;;
72261;SDS011;60173;52.112;8.648;2024-02-21T13:47:46;20.38;;;6.30;;
72261;SDS011;60173;52.112;8.648;2024-02-21T13:50:12;16.27;;;5.45;;
72261;SDS011;60173;52.112;8.648;2024-02-21T13:52:39;18.70;;;5.88;;
72261;SDS011;60173;52.112;8.648;2024-02-21T13:55:06;16.23;;;5.55;;
72261;SDS011;60173;52.112;8.648;2024-02-21T13:57:32;14.23;;;4.38;;
72261;SDS011;60173;52.112;8.648;2024-02-21T13:59:59;14.68;;;4.50;;
72261;SDS011;60173;52.112;8.648;2024-02-21T14:02:25;13.20;;;4.25;;
72261;SDS011;60173;52.112;8.648;2024-02-21T14:04:52;14.93;;;5.18;;
72261;SDS011;60173;52.112;8.648;2024-02-21T14:07:18;17.88;;;5.82;;
72261;SDS011;60173;52.112;8.648;2024-02-21T14:09:45;15.40;;;5.50;;
72261;SDS011;60173;52.112;8.648;2024-02-21T14:12:11;13.25;;;5.32;;
72261;SDS011;60173;52.112;8.648;2024-02-21T14:14:38;17.90;;;5.70;;
72261;SDS011;60173;52.112;8.648;2024-02-21T14:17:05;14.95;;;4.95;;
72261;SDS011;60173;52.112;8.648;2024-02-21T14:19:32;15.10;;;4.45;;
72261;SDS011;60173;52.112;8.648;2024-02-21T14:21:58;11.60;;;4.05;;
72261;SDS011;60173;52.112;8.648;2024-02-21T14:24:25;8.77;;;4.20;;
72261;SDS011;60173;52.112;8.648;2024-02-21T14:26:51;14.93;;;4.38;;
72261;SDS011;60173;52.112;8.648;2024-02-21T14:29:18;14.13;;;5.07;;
72261;SDS011;60173;52.112;8.648;2024-02-21T14:31:44;11.77;;;4.35;;
72261;SDS011;60173;52.112;8.648;2024-02-21T14:34:11;12.18;;;4.40;;
72261;SDS011;60173;52.112;8.648;2024-02-21T14:36:38;10.25;;;4.07;;